Advance, OR

12:14 PM PDT on October 23, 2014 (GMT -0700)
Hidden Springs | Change Station
CLOSE
Current Station
Personal Weather Station
Location: West Linn, OR
Elevation: 597 ft
Nearby Weather Stations

Elev 597 ft 45.38 °N, 122.65 °W | Updated 4 minutes ago

Overcast
Overcast
55.4 °F
Feels Like 55.4 °F
N
2.0
Wind Variable Wind from SSW
Gusts 6.0 mph

Today
High -- | Low -- °F
--% Chance of Precip.
Yesterday
High -- | Low -- °F
Precip. -- in
7:37 AM 6:11 PM
Waning Crescent, 0% visible
Pressure 29.89 in
Visibility 10.0 miles
Clouds Mostly Cloudy 1700 ft
Mostly Cloudy 2900 ft
Dew Point 54 °F
Humidity 96%
Rainfall 0.25 in
Snow Depth Not available.
UV 2 out of 12
Pollen .40 out of 12
Ozone Good
PM2.5 Good
Flu Activity Sporadic
SPECI KUAO 231902Z AUTO 19007KT 10SM BKN017 BKN029 15/13 A2989 RMK AO2 T01500128

More Conditions Fewer Conditions

Pressure 29.89 in
Visibility 10.0 miles
Clouds Mostly Cloudy 1700 ft
Mostly Cloudy 2900 ft
Dew Point 54 °F
Humidity 96%
Rainfall 0.25 in
Snow Depth Not available.
UV 2 out of 12
Pollen .40 out of 12
Ozone Good
PM2.5 Good
Flu Activity Sporadic
SPECI KUAO 231902Z AUTO 19007KT 10SM BKN017 BKN029 15/13 A2989 RMK AO2 T01500128

More Conditions Fewer Conditions

10-Day Weather Forecast

Almanac

Astronomy

Oct. 23, 2014 Rise Set
Actual Time 7:37 AM PDT 6:11 PM PDT
Civil Twilight 7:07 AM PDT 6:41 PM PDT
Nautical Twilight 6:32 AM PDT 7:16 PM PDT
Astronomical Twilight 5:58 AM PDT 7:50 PM PDT
Moon 7:21 AM PDT 6:16 PM PDT
Length of Visible Light 11h 34m
Length of Day
10h 33m
Tomorrow will be 2m 58s shorter.
Waning Crescent, 0% of the Moon is Illuminated
Today
Waning Crescent
Oct 23
New
Oct 30
First Quarter
Nov 6
Full
Nov 14
Last Quarter

Today's Extremes

State Highs State Lows

Community

WunderPhotos

Upload Photos

1,764,346 photos uploaded!

WunderBlogs® & News

By Dr. Jeff Masters
Director of Meteorology, Weather Underground
By Kari Strenfel
Meteorologist, Weather Underground
By Christopher C. Burt
Weather Historian, Weather Underground
October 23, 2014
October 23, 2014
October 23, 2014

Nearby

Air Quality

  Air Quality AQ Index Pollutant
Yesterday Good
OZONE
Yesterday Good
PM2.5
Current Good
PM2.5
Current Good
OZONE
Thursday Good
PM2.5

Snow Depth

Station Depth Elevation
Seine Creek 0 in 2000 ft
North Fork 0 in 3120 ft
Saddle Mountain 7 in 3250 ft
Peavine Ridge 0 in 3500 ft
Mud Ridge 0 in 3800 ft

Earthquake Activity

City Distance Mag. Time & Date
No recent earthquake activity has been reported nearby.
Minimum magnitude displayed is 2.5.

Coastal Water Temperatures

Place Temperature
No Stations Reporting

Nearby Weather Stations